KACB/ACB METAR and TAF weather

Enter ICAO airport designator
Station Type Date Time Source
KACB METAR 2020/01/22 21:16 UTC NOAA

KACB 222116Z AUTO 20005KT 10SM OVC027 04/M02 A3005 RMK AO2 T00371023


Station Type Date Time Source
KACB Decoded METAR 2020/01/22 21:16 UTC NOAA

Bellaire, Antrim County Airport, MI, United States (KACB) 44-59-18N 085-11-54W
Jan 22, 2020 - 04:16 PM EST / 2020.01.22 2116 UTC
Wind: from the SSW (200 degrees) at 6 MPH (5 KT):0
Visibility: 10 mile(s):0
Sky conditions: overcast
Temperature: 38.7 F (3.7 C)
Dew Point: 27.9 F (-2.3 C)
Relative Humidity: 64%
Pressure (altimeter): 30.05 in. Hg (1017 hPa)
ob: KACB 222116Z AUTO 20005KT 10SM OVC027 04/M02 A3005 RMK AO2 T00371023
cycle: 21

Station Type Date Time Source
KACB TAF UTC NOAA

Error!

Example: see airport list